GLD1620 SBRJ-SBKP
Flight info
| Callsign | GLD1620 |
|---|---|
| Flight time | 0h 49m |
| Altitude | 36000 |
| Route | EVKO2F ESORU UZ10 EDMUS EDMU1B |
| Aircraft | A20N/M-SDE2E3FGHIRWXY/LB1 |
Departure
| Time | 2026-05-07 00:41 |
|---|---|
| Airport | Santos Dumont Airport (SBRJ) |
Arrival
| Time | 2026-05-07 01:30 |
|---|---|
| Airport | Viracopos International Airport (SBKP) |
| Time | Latitude | Longitude | Altitude | Speed | Heading |
|---|---|---|---|---|---|
| 2026-05-07 00:14 | -22.91209 | -43.16584 | 22 ft | 0 kts | 267° |
| 2026-05-07 00:28 | -22.91209 | -43.16580 | 22 ft | 3 kts | 267° |
| 2026-05-07 00:28 | -22.91209 | -43.16551 | 24 ft | 4 kts | 279° |
| 2026-05-07 00:29 | -22.91217 | -43.16524 | 23 ft | 4 kts | 309° |
| 2026-05-07 00:29 | -22.91232 | -43.16512 | 23 ft | 1 kts | 356° |
| 2026-05-07 00:30 | -22.91236 | -43.16511 | 23 ft | 0 kts | 356° |
| 2026-05-07 00:34 | -22.91227 | -43.16512 | 24 ft | 7 kts | 356° |
| 2026-05-07 00:34 | -22.91141 | -43.16518 | 23 ft | 17 kts | 356° |
| 2026-05-07 00:34 | -22.91010 | -43.16542 | 26 ft | 22 kts | 357° |
| 2026-05-07 00:34 | -22.90854 | -43.16549 | 22 ft | 22 kts | 359° |
| 2026-05-07 00:35 | -22.90746 | -43.16543 | 24 ft | 24 kts | 359° |
| 2026-05-07 00:35 | -22.90582 | -43.16554 | 23 ft | 21 kts | 358° |
| 2026-05-07 00:35 | -22.90507 | -43.16538 | 22 ft | 0 kts | 53° |
| 2026-05-07 00:39 | -22.90506 | -43.16538 | 22 ft | 1 kts | 53° |
| 2026-05-07 00:39 | -22.90495 | -43.16497 | 22 ft | 11 kts | 75° |
| 2026-05-07 00:40 | -22.90490 | -43.16393 | 24 ft | 16 kts | 91° |
| 2026-05-07 00:40 | -22.90538 | -43.16317 | 27 ft | 10 kts | 182° |
| 2026-05-07 00:40 | -22.90801 | -43.16300 | 28 ft | 92 kts | 176° |
| 2026-05-07 00:40 | -22.91751 | -43.16230 | 207 ft | 171 kts | 174° |
| 2026-05-07 00:41 | -22.92890 | -43.15825 | 663 ft | 163 kts | 142° |
| 2026-05-07 00:41 | -22.93698 | -43.15001 | 915 ft | 160 kts | 132° |
| 2026-05-07 00:41 | -22.94444 | -43.14134 | 1136 ft | 159 kts | 129° |
| 2026-05-07 00:41 | -22.94955 | -43.13085 | 1562 ft | 170 kts | 91° |
| 2026-05-07 00:42 | -22.94868 | -43.11718 | 2504 ft | 210 kts | 88° |
| 2026-05-07 00:42 | -22.95246 | -43.09971 | 3184 ft | 262 kts | 116° |
| 2026-05-07 00:42 | -22.96476 | -43.08503 | 4785 ft | 261 kts | 146° |
| 2026-05-07 00:42 | -22.98244 | -43.07676 | 5800 ft | 302 kts | 165° |
| 2026-05-07 00:43 | -23.00526 | -43.07552 | 5929 ft | 357 kts | 186° |
| 2026-05-07 00:43 | -23.03010 | -43.08381 | 6129 ft | 398 kts | 206° |
| 2026-05-07 00:43 | -23.05231 | -43.10157 | 7407 ft | 398 kts | 224° |
| 2026-05-07 00:43 | -23.06832 | -43.12444 | 8725 ft | 352 kts | 243° |
| 2026-05-07 00:44 | -23.07454 | -43.14648 | 9993 ft | 285 kts | 266° |
| 2026-05-07 00:44 | -23.07145 | -43.16707 | 11285 ft | 267 kts | 295° |
| 2026-05-07 00:44 | -23.06044 | -43.18356 | 12320 ft | 280 kts | 320° |
| 2026-05-07 00:44 | -23.04264 | -43.19526 | 12985 ft | 305 kts | 333° |
| 2026-05-07 00:45 | -23.02367 | -43.20765 | 13563 ft | 332 kts | 325° |
| 2026-05-07 00:45 | -23.00505 | -43.22398 | 14038 ft | 358 kts | 318° |
| 2026-05-07 00:45 | -22.98695 | -43.24332 | 14758 ft | 370 kts | 314° |
| 2026-05-07 00:45 | -22.96933 | -43.26383 | 15655 ft | 376 kts | 312° |
| 2026-05-07 00:46 | -22.95162 | -43.28499 | 16608 ft | 381 kts | 312° |
| 2026-05-07 00:46 | -22.93362 | -43.30655 | 17533 ft | 386 kts | 312° |
| 2026-05-07 00:46 | -22.91518 | -43.32852 | 18443 ft | 393 kts | 312° |
| 2026-05-07 00:46 | -22.89681 | -43.35065 | 19234 ft | 397 kts | 311° |
| 2026-05-07 00:47 | -22.87826 | -43.37353 | 20120 ft | 399 kts | 310° |
| 2026-05-07 00:47 | -22.85989 | -43.39627 | 20956 ft | 403 kts | 310° |
| 2026-05-07 00:47 | -22.84128 | -43.41927 | 21809 ft | 407 kts | 310° |
| 2026-05-07 00:47 | -22.82254 | -43.44234 | 22652 ft | 411 kts | 310° |
| 2026-05-07 00:48 | -22.80336 | -43.46587 | 23494 ft | 416 kts | 310° |
| 2026-05-07 00:48 | -22.78412 | -43.48942 | 24216 ft | 421 kts | 310° |
| 2026-05-07 00:48 | -22.76472 | -43.51313 | 24883 ft | 426 kts | 310° |
| 2026-05-07 00:48 | -22.74509 | -43.53724 | 25526 ft | 430 kts | 308° |
| 2026-05-07 00:49 | -22.72859 | -43.56462 | 26197 ft | 431 kts | 294° |
| 2026-05-07 00:49 | -22.71849 | -43.59515 | 26865 ft | 431 kts | 280° |
| 2026-05-07 00:49 | -22.71510 | -43.62728 | 27520 ft | 430 kts | 267° |
| 2026-05-07 00:49 | -22.71805 | -43.65940 | 28172 ft | 430 kts | 259° |
| 2026-05-07 00:50 | -22.72257 | -43.69118 | 28828 ft | 433 kts | 258° |
| 2026-05-07 00:50 | -22.72715 | -43.72344 | 29442 ft | 436 kts | 258° |
| 2026-05-07 00:50 | -22.73196 | -43.75641 | 30033 ft | 438 kts | 256° |
| 2026-05-07 00:50 | -22.73923 | -43.78842 | 30587 ft | 438 kts | 250° |
| 2026-05-07 00:51 | -22.74930 | -43.81960 | 31132 ft | 438 kts | 246° |
| 2026-05-07 00:51 | -22.75982 | -43.85101 | 31732 ft | 439 kts | 246° |
| 2026-05-07 00:51 | -22.77010 | -43.88207 | 32466 ft | 435 kts | 246° |
| 2026-05-07 00:51 | -22.78018 | -43.91267 | 33225 ft | 431 kts | 246° |
| 2026-05-07 00:52 | -22.79023 | -43.94317 | 33978 ft | 428 kts | 245° |
| 2026-05-07 00:52 | -22.80022 | -43.97349 | 34651 ft | 424 kts | 245° |
| 2026-05-07 00:52 | -22.81006 | -44.00335 | 35307 ft | 419 kts | 244° |
| 2026-05-07 00:52 | -22.81981 | -44.03291 | 35529 ft | 415 kts | 244° |
| 2026-05-07 00:53 | -22.82966 | -44.06273 | 35637 ft | 413 kts | 244° |
| 2026-05-07 00:53 | -22.83933 | -44.09201 | 35743 ft | 413 kts | 244° |
| 2026-05-07 00:53 | -22.85850 | -44.15018 | 35942 ft | 410 kts | 244° |
| 2026-05-07 00:54 | -22.87775 | -44.20862 | 36008 ft | 410 kts | 244° |
| 2026-05-07 00:54 | -22.89380 | -44.25740 | 36011 ft | 409 kts | 244° |
| 2026-05-07 00:55 | -22.91302 | -44.31591 | 36012 ft | 409 kts | 244° |
| 2026-05-07 00:55 | -22.93208 | -44.37404 | 36010 ft | 408 kts | 244° |
| 2026-05-07 00:56 | -22.95109 | -44.43208 | 36015 ft | 408 kts | 244° |
| 2026-05-07 00:56 | -22.96994 | -44.48972 | 36021 ft | 408 kts | 244° |
| 2026-05-07 00:57 | -22.98901 | -44.54811 | 36021 ft | 407 kts | 244° |
| 2026-05-07 00:57 | -23.00789 | -44.60602 | 36024 ft | 407 kts | 244° |
| 2026-05-07 00:58 | -23.02674 | -44.66386 | 36024 ft | 408 kts | 245° |
| 2026-05-07 00:58 | -23.04149 | -44.72374 | 36029 ft | 411 kts | 250° |
| 2026-05-07 00:59 | -23.06189 | -44.81443 | 36036 ft | 409 kts | 250° |
| 2026-05-07 01:00 | -23.07545 | -44.87455 | 36040 ft | 409 kts | 250° |
| 2026-05-07 01:00 | -23.08896 | -44.93483 | 36042 ft | 410 kts | 250° |
| 2026-05-07 01:01 | -23.10236 | -44.99476 | 36040 ft | 410 kts | 250° |
| 2026-05-07 01:01 | -23.11584 | -45.05512 | 36039 ft | 411 kts | 250° |
| 2026-05-07 01:02 | -23.12929 | -45.11545 | 36036 ft | 410 kts | 250° |
| 2026-05-07 01:02 | -23.14270 | -45.17568 | 36039 ft | 411 kts | 250° |
| 2026-05-07 01:03 | -23.15617 | -45.23636 | 36038 ft | 410 kts | 250° |
| 2026-05-07 01:03 | -23.16972 | -45.29750 | 36035 ft | 410 kts | 250° |
| 2026-05-07 01:04 | -23.18312 | -45.35807 | 36032 ft | 410 kts | 250° |
| 2026-05-07 01:04 | -23.19644 | -45.41832 | 36034 ft | 410 kts | 250° |
| 2026-05-07 01:05 | -23.20993 | -45.47909 | 36033 ft | 410 kts | 250° |
| 2026-05-07 01:05 | -23.22326 | -45.53931 | 36030 ft | 410 kts | 250° |
| 2026-05-07 01:06 | -23.23892 | -45.59884 | 35996 ft | 401 kts | 246° |
| 2026-05-07 01:06 | -23.24690 | -45.62742 | 35904 ft | 390 kts | 246° |
| 2026-05-07 01:06 | -23.25463 | -45.65529 | 35793 ft | 376 kts | 246° |
| 2026-05-07 01:06 | -23.26212 | -45.68220 | 35341 ft | 371 kts | 246° |
| 2026-05-07 01:07 | -23.26965 | -45.70909 | 34754 ft | 370 kts | 246° |
| 2026-05-07 01:07 | -23.27714 | -45.73583 | 34204 ft | 369 kts | 246° |
| 2026-05-07 01:07 | -23.28456 | -45.76239 | 33639 ft | 367 kts | 247° |
| 2026-05-07 01:07 | -23.29185 | -45.78851 | 33108 ft | 364 kts | 247° |
| 2026-05-07 01:08 | -23.29913 | -45.81467 | 32565 ft | 361 kts | 247° |
| 2026-05-07 01:08 | -23.30641 | -45.84082 | 32033 ft | 358 kts | 248° |
| 2026-05-07 01:08 | -23.31370 | -45.86701 | 31509 ft | 355 kts | 248° |
| 2026-05-07 01:08 | -23.32080 | -45.89258 | 30976 ft | 353 kts | 248° |
| 2026-05-07 01:09 | -23.32788 | -45.91804 | 30463 ft | 351 kts | 248° |
| 2026-05-07 01:09 | -23.33496 | -45.94350 | 29915 ft | 349 kts | 248° |
| 2026-05-07 01:09 | -23.34183 | -45.96828 | 29330 ft | 347 kts | 249° |
| 2026-05-07 01:09 | -23.34888 | -45.99376 | 28738 ft | 345 kts | 249° |
| 2026-05-07 01:10 | -23.35580 | -46.01876 | 28166 ft | 344 kts | 249° |
| 2026-05-07 01:10 | -23.36266 | -46.04358 | 27574 ft | 343 kts | 249° |
| 2026-05-07 01:10 | -23.36971 | -46.06913 | 27037 ft | 341 kts | 249° |
| 2026-05-07 01:10 | -23.37645 | -46.09346 | 26517 ft | 340 kts | 249° |
| 2026-05-07 01:11 | -23.38337 | -46.11802 | 25985 ft | 339 kts | 249° |
| 2026-05-07 01:11 | -23.38830 | -46.13538 | 25619 ft | 338 kts | 249° |
| 2026-05-07 01:11 | -23.39524 | -46.15979 | 25108 ft | 338 kts | 249° |
| 2026-05-07 01:11 | -23.40216 | -46.18421 | 24611 ft | 338 kts | 249° |
| 2026-05-07 01:12 | -23.40906 | -46.20860 | 24141 ft | 337 kts | 249° |
| 2026-05-07 01:12 | -23.41594 | -46.23299 | 23630 ft | 336 kts | 249° |
| 2026-05-07 01:12 | -23.42281 | -46.25735 | 23103 ft | 335 kts | 250° |
| 2026-05-07 01:12 | -23.42960 | -46.28148 | 22609 ft | 334 kts | 250° |
| 2026-05-07 01:13 | -23.43647 | -46.30590 | 22099 ft | 333 kts | 250° |
| 2026-05-07 01:13 | -23.44346 | -46.33075 | 21582 ft | 332 kts | 250° |
| 2026-05-07 01:13 | -23.45017 | -46.35493 | 21087 ft | 331 kts | 253° |
| 2026-05-07 01:13 | -23.45232 | -46.37150 | 20748 ft | 334 kts | 268° |
| 2026-05-07 01:14 | -23.44805 | -46.39669 | 20265 ft | 338 kts | 290° |
| 2026-05-07 01:14 | -23.43573 | -46.41935 | 19813 ft | 338 kts | 304° |
| 2026-05-07 01:14 | -23.42208 | -46.44002 | 19388 ft | 336 kts | 305° |
| 2026-05-07 01:14 | -23.40813 | -46.46080 | 18964 ft | 334 kts | 305° |
| 2026-05-07 01:15 | -23.39458 | -46.48116 | 18562 ft | 333 kts | 305° |
| 2026-05-07 01:15 | -23.38112 | -46.50161 | 18114 ft | 330 kts | 305° |
| 2026-05-07 01:15 | -23.36757 | -46.52233 | 17662 ft | 328 kts | 305° |
| 2026-05-07 01:15 | -23.35445 | -46.54246 | 17221 ft | 326 kts | 305° |
| 2026-05-07 01:16 | -23.34123 | -46.56276 | 16783 ft | 323 kts | 306° |
| 2026-05-07 01:16 | -23.32830 | -46.58262 | 16354 ft | 322 kts | 306° |
| 2026-05-07 01:16 | -23.31544 | -46.60236 | 15933 ft | 319 kts | 306° |
| 2026-05-07 01:16 | -23.30262 | -46.62204 | 15519 ft | 317 kts | 306° |
| 2026-05-07 01:17 | -23.28862 | -46.64097 | 15101 ft | 314 kts | 315° |
| 2026-05-07 01:17 | -23.27112 | -46.65772 | 14666 ft | 311 kts | 323° |
| 2026-05-07 01:17 | -23.25547 | -46.67127 | 14294 ft | 309 kts | 322° |
| 2026-05-07 01:17 | -23.23905 | -46.68565 | 13901 ft | 307 kts | 322° |
| 2026-05-07 01:18 | -23.22246 | -46.70026 | 13480 ft | 304 kts | 322° |
| 2026-05-07 01:18 | -23.20593 | -46.71484 | 13071 ft | 301 kts | 322° |
| 2026-05-07 01:18 | -23.18966 | -46.72917 | 12663 ft | 298 kts | 322° |
| 2026-05-07 01:18 | -23.17346 | -46.74342 | 12266 ft | 295 kts | 322° |
| 2026-05-07 01:19 | -23.15761 | -46.75737 | 11873 ft | 292 kts | 322° |
| 2026-05-07 01:19 | -23.14213 | -46.77098 | 11509 ft | 289 kts | 322° |
| 2026-05-07 01:19 | -23.12644 | -46.78477 | 11133 ft | 286 kts | 322° |
| 2026-05-07 01:19 | -23.11107 | -46.79829 | 10761 ft | 283 kts | 322° |
| 2026-05-07 01:20 | -23.09563 | -46.81185 | 10396 ft | 280 kts | 322° |
| 2026-05-07 01:20 | -23.08056 | -46.82507 | 10042 ft | 277 kts | 322° |
| 2026-05-07 01:20 | -23.06564 | -46.83816 | 9626 ft | 275 kts | 322° |
| 2026-05-07 01:20 | -23.05073 | -46.85124 | 9187 ft | 274 kts | 322° |
| 2026-05-07 01:21 | -23.03675 | -46.86524 | 8755 ft | 274 kts | 309° |
| 2026-05-07 01:21 | -23.02808 | -46.88349 | 8317 ft | 275 kts | 287° |
| 2026-05-07 01:21 | -23.02460 | -46.90386 | 7923 ft | 274 kts | 280° |
| 2026-05-07 01:21 | -23.02146 | -46.92431 | 7537 ft | 272 kts | 283° |
| 2026-05-07 01:22 | -23.01537 | -46.94361 | 7108 ft | 270 kts | 298° |
| 2026-05-07 01:22 | -23.00486 | -46.96037 | 6732 ft | 267 kts | 310° |
| 2026-05-07 01:22 | -22.99321 | -46.97597 | 6334 ft | 267 kts | 310° |
| 2026-05-07 01:22 | -22.98184 | -46.99154 | 5916 ft | 266 kts | 309° |
| 2026-05-07 01:23 | -22.97027 | -47.00751 | 5715 ft | 262 kts | 309° |
| 2026-05-07 01:23 | -22.95855 | -47.02370 | 5622 ft | 269 kts | 309° |
| 2026-05-07 01:23 | -22.94705 | -47.03956 | 5514 ft | 266 kts | 309° |
| 2026-05-07 01:23 | -22.93567 | -47.05529 | 5328 ft | 265 kts | 308° |
| 2026-05-07 01:24 | -22.92585 | -47.07226 | 5172 ft | 266 kts | 297° |
| 2026-05-07 01:24 | -22.91931 | -47.09100 | 4859 ft | 265 kts | 288° |
| 2026-05-07 01:24 | -22.91376 | -47.11010 | 4560 ft | 262 kts | 288° |
| 2026-05-07 01:24 | -22.90809 | -47.12923 | 4326 ft | 266 kts | 288° |
| 2026-05-07 01:25 | -22.90236 | -47.14831 | 4212 ft | 265 kts | 288° |
| 2026-05-07 01:25 | -22.89645 | -47.16785 | 4075 ft | 268 kts | 289° |
| 2026-05-07 01:25 | -22.89084 | -47.18701 | 3980 ft | 263 kts | 283° |
| 2026-05-07 01:25 | -22.89110 | -47.20620 | 3884 ft | 250 kts | 253° |
| 2026-05-07 01:26 | -22.89950 | -47.22175 | 3782 ft | 233 kts | 221° |
| 2026-05-07 01:26 | -22.91331 | -47.22952 | 3707 ft | 212 kts | 185° |
| 2026-05-07 01:26 | -22.92639 | -47.22658 | 3583 ft | 179 kts | 147° |
| 2026-05-07 01:26 | -22.93586 | -47.21943 | 3505 ft | 153 kts | 139° |
| 2026-05-07 01:27 | -22.94349 | -47.21287 | 3520 ft | 132 kts | 137° |
| 2026-05-07 01:27 | -22.95028 | -47.20662 | 3502 ft | 123 kts | 135° |
| 2026-05-07 01:27 | -22.95655 | -47.20036 | 3446 ft | 123 kts | 133° |
| 2026-05-07 01:27 | -22.96056 | -47.19606 | 3345 ft | 121 kts | 131° |
| 2026-05-07 01:28 | -22.96634 | -47.18946 | 3195 ft | 121 kts | 129° |
| 2026-05-07 01:28 | -22.97199 | -47.18261 | 3033 ft | 122 kts | 128° |
| 2026-05-07 01:28 | -22.97756 | -47.17549 | 2868 ft | 122 kts | 128° |
| 2026-05-07 01:28 | -22.98295 | -47.16834 | 2703 ft | 122 kts | 128° |
| 2026-05-07 01:29 | -22.98814 | -47.16125 | 2525 ft | 121 kts | 128° |
| 2026-05-07 01:29 | -22.99329 | -47.15416 | 2361 ft | 118 kts | 128° |
| 2026-05-07 01:29 | -22.99828 | -47.14730 | 2235 ft | 114 kts | 127° |
| 2026-05-07 01:29 | -23.00296 | -47.14070 | 2163 ft | 97 kts | 127° |
| 2026-05-07 01:30 | -23.00521 | -47.13752 | 2162 ft | 10 kts | 127° |
| 2026-05-07 01:30 | -23.00560 | -47.13697 | 2166 ft | 17 kts | 127° |
| 2026-05-07 01:30 | -23.00645 | -47.13576 | 2166 ft | 23 kts | 127° |
| 2026-05-07 01:30 | -23.00730 | -47.13491 | 2158 ft | 8 kts | 189° |
| 2026-05-07 01:31 | -23.00752 | -47.13543 | 2162 ft | 10 kts | 277° |
| 2026-05-07 01:31 | -23.00747 | -47.13582 | 2167 ft | 0 kts | 277° |
| 2026-05-07 01:32 | -23.00739 | -47.13660 | 2160 ft | 16 kts | 277° |
| 2026-05-07 01:32 | -23.00722 | -47.13808 | 2164 ft | 23 kts | 277° |
| 2026-05-07 01:32 | -23.00685 | -47.13992 | 2168 ft | 28 kts | 294° |
| 2026-05-07 01:32 | -23.00566 | -47.14173 | 2161 ft | 32 kts | 309° |
| 2026-05-07 01:33 | -23.00422 | -47.14371 | 2167 ft | 35 kts | 309° |
| 2026-05-07 01:33 | -23.00264 | -47.14592 | 2169 ft | 38 kts | 309° |
| 2026-05-07 01:33 | -23.00133 | -47.14772 | 2160 ft | 28 kts | 308° |
| 2026-05-07 01:33 | -23.00105 | -47.14878 | 2168 ft | 0 kts | 249° |
| 2026-05-07 01:34 | -23.00120 | -47.14942 | 2160 ft | 16 kts | 255° |
| 2026-05-07 01:34 | -23.00204 | -47.14977 | 2164 ft | 13 kts | 140° |
| 2026-05-07 01:34 | -23.00282 | -47.14921 | 2162 ft | 14 kts | 183° |
| 2026-05-07 01:34 | -23.00329 | -47.14963 | 2167 ft | 8 kts | 224° |
| 2026-05-07 01:35 | -23.00338 | -47.14971 | 2164 ft | 0 kts | 218° |
| 2026-05-07 01:47 | -23.00326 | -47.14960 | 2161 ft | 4 kts | 223° |
| 2026-05-07 01:47 | -23.00308 | -47.14938 | 2159 ft | 4 kts | 246° |
| 2026-05-07 01:48 | -23.00305 | -47.14914 | 2159 ft | 3 kts | 306° |
| 2026-05-07 01:48 | -23.00307 | -47.14912 | 2159 ft | 0 kts | 308° |
| 2026-05-07 01:51 | -23.00306 | -47.14912 | 2159 ft | 0 kts | 308° |
| 2026-05-07 01:51 | -23.00289 | -47.14937 | 2162 ft | 8 kts | 308° |
| 2026-05-07 01:52 | -23.00229 | -47.15010 | 2166 ft | 15 kts | 332° |
| 2026-05-07 01:52 | -23.00145 | -47.14976 | 2162 ft | 14 kts | 36° |
| 2026-05-07 01:52 | -23.00061 | -47.14905 | 2161 ft | 16 kts | 38° |
| 2026-05-07 01:52 | -22.99980 | -47.14820 | 2164 ft | 16 kts | 39° |
| 2026-05-07 01:53 | -22.99930 | -47.14773 | 2162 ft | 0 kts | 52° |
| 2026-05-07 01:53 | -22.99925 | -47.14765 | 2165 ft | 3 kts | 52° |
| 2026-05-07 01:54 | -22.99906 | -47.14735 | 2160 ft | 7 kts | 61° |
| 2026-05-07 01:54 | -22.99879 | -47.14677 | 2165 ft | 10 kts | 69° |
| 2026-05-07 01:54 | -22.99918 | -47.14595 | 2163 ft | 32 kts | 127° |
| 2026-05-07 01:54 | -23.00240 | -47.14147 | 2165 ft | 115 kts | 127° |
| 2026-05-07 01:55 | -23.00854 | -47.13281 | 2310 ft | 167 kts | 126° |
| 2026-05-07 01:55 | -23.01623 | -47.12177 | 2744 ft | 190 kts | 126° |
| 2026-05-07 01:55 | -23.02465 | -47.10982 | 3092 ft | 215 kts | 126° |
| 2026-05-07 01:55 | -23.03403 | -47.09679 | 3879 ft | 216 kts | 127° |
| 2026-05-07 01:56 | -23.04368 | -47.08385 | 4605 ft | 231 kts | 127° |
| 2026-05-07 01:56 | -23.05597 | -47.07111 | 5072 ft | 257 kts | 149° |
| 2026-05-07 01:56 | -23.07338 | -47.06560 | 5772 ft | 269 kts | 178° |
| 2026-05-07 01:56 | -23.09182 | -47.06966 | 6660 ft | 274 kts | 206° |
| 2026-05-07 01:57 | -23.10669 | -47.08235 | 7498 ft | 276 kts | 233° |
| 2026-05-07 01:57 | -23.11484 | -47.10105 | 8320 ft | 277 kts | 261° |
| 2026-05-07 01:57 | -23.11573 | -47.12171 | 9153 ft | 280 kts | 270° |
| 2026-05-07 01:57 | -23.12036 | -47.14280 | 10050 ft | 285 kts | 244° |
| 2026-05-07 01:58 | -23.13270 | -47.16076 | 10749 ft | 296 kts | 227° |
| 2026-05-07 01:58 | -23.14811 | -47.17683 | 11042 ft | 320 kts | 221° |
| 2026-05-07 01:58 | -23.16545 | -47.19289 | 11287 ft | 343 kts | 220° |
| 2026-05-07 01:58 | -23.18461 | -47.21008 | 11732 ft | 357 kts | 217° |
| 2026-05-07 01:59 | -23.20571 | -47.22431 | 12460 ft | 360 kts | 205° |
| 2026-05-07 01:59 | -23.22889 | -47.23394 | 13168 ft | 363 kts | 194° |
| 2026-05-07 01:59 | -23.25380 | -47.24053 | 13910 ft | 366 kts | 192° |
| 2026-05-07 01:59 | -23.27876 | -47.24718 | 14570 ft | 369 kts | 192° |
| 2026-05-07 02:00 | -23.30398 | -47.25397 | 15226 ft | 371 kts | 192° |
| 2026-05-07 02:00 | -23.32921 | -47.26080 | 15871 ft | 374 kts | 192° |
| 2026-05-07 02:00 | -23.35452 | -47.26767 | 16438 ft | 379 kts | 193° |
| 2026-05-07 02:00 | -23.37935 | -47.27441 | 16554 ft | 378 kts | 193° |
| 2026-05-07 02:01 | -23.40485 | -47.28132 | 16662 ft | 378 kts | 193° |
| 2026-05-07 02:01 | -23.43043 | -47.28825 | 16782 ft | 379 kts | 193° |
| 2026-05-07 02:01 | -23.45605 | -47.29520 | 16899 ft | 380 kts | 193° |
| 2026-05-07 02:01 | -23.48152 | -47.30210 | 16991 ft | 380 kts | 193° |
| 2026-05-07 02:02 | -23.50720 | -47.30905 | 17009 ft | 380 kts | 193° |
| 2026-05-07 02:02 | -23.53249 | -47.31590 | 17004 ft | 380 kts | 193° |
| 2026-05-07 02:02 | -23.55859 | -47.32297 | 17076 ft | 383 kts | 193° |
| 2026-05-07 02:02 | -23.58441 | -47.32998 | 17662 ft | 384 kts | 193° |
| 2026-05-07 02:03 | -23.61034 | -47.33702 | 18380 ft | 385 kts | 193° |
| 2026-05-07 02:03 | -23.63646 | -47.34412 | 18960 ft | 387 kts | 193° |
| 2026-05-07 02:03 | -23.66253 | -47.35120 | 19550 ft | 388 kts | 193° |
| 2026-05-07 02:03 | -23.68886 | -47.35836 | 20132 ft | 390 kts | 193° |
| 2026-05-07 02:04 | -23.71524 | -47.36554 | 20688 ft | 392 kts | 194° |
| 2026-05-07 02:04 | -23.74170 | -47.37275 | 21268 ft | 394 kts | 194° |
| 2026-05-07 02:04 | -23.76837 | -47.38001 | 21830 ft | 396 kts | 194° |
| 2026-05-07 02:04 | -23.79518 | -47.38731 | 22405 ft | 398 kts | 194° |
| 2026-05-07 02:05 | -23.82202 | -47.39462 | 22973 ft | 400 kts | 194° |
| 2026-05-07 02:05 | -23.84913 | -47.40201 | 23533 ft | 402 kts | 195° |
| 2026-05-07 02:05 | -23.87588 | -47.40931 | 24021 ft | 403 kts | 195° |
| 2026-05-07 02:05 | -23.90320 | -47.41676 | 24570 ft | 403 kts | 195° |
| 2026-05-07 02:06 | -23.93030 | -47.42415 | 25076 ft | 403 kts | 195° |
| 2026-05-07 02:06 | -23.95761 | -47.43161 | 25565 ft | 404 kts | 195° |
| 2026-05-07 02:06 | -23.98482 | -47.43904 | 26058 ft | 405 kts | 195° |
| 2026-05-07 02:06 | -24.01227 | -47.44655 | 26541 ft | 405 kts | 196° |
| 2026-05-07 02:07 | -24.03966 | -47.45404 | 27013 ft | 406 kts | 196° |
| 2026-05-07 02:07 | -24.09406 | -47.47093 | 27730 ft | 407 kts | 202° |
| 2026-05-07 02:07 | -24.11987 | -47.48345 | 27850 ft | 406 kts | 208° |
| 2026-05-07 02:08 | -24.14396 | -47.49860 | 27962 ft | 406 kts | 213° |
| 2026-05-07 02:08 | -24.16771 | -47.51531 | 27971 ft | 406 kts | 213° |
| 2026-05-07 02:08 | -24.19161 | -47.53194 | 27969 ft | 406 kts | 213° |
| 2026-05-07 02:08 | -24.21553 | -47.54853 | 27967 ft | 406 kts | 213° |
| 2026-05-07 02:09 | -24.23934 | -47.56505 | 27969 ft | 407 kts | 213° |
| 2026-05-07 02:09 | -24.26329 | -47.58168 | 27962 ft | 406 kts | 213° |
| 2026-05-07 02:09 | -24.28715 | -47.59828 | 27957 ft | 407 kts | 213° |
| 2026-05-07 02:09 | -24.31104 | -47.61491 | 27960 ft | 407 kts | 213° |
| 2026-05-07 02:10 | -24.33469 | -47.63139 | 27961 ft | 407 kts | 213° |
| 2026-05-07 02:10 | -24.35827 | -47.64783 | 27958 ft | 407 kts | 213° |
| 2026-05-07 02:10 | -24.38220 | -47.66452 | 27947 ft | 406 kts | 213° |
| 2026-05-07 02:10 | -24.40606 | -47.68126 | 27951 ft | 407 kts | 214° |
| 2026-05-07 02:11 | -24.42862 | -47.69986 | 27958 ft | 407 kts | 220° |
| 2026-05-07 02:11 | -24.44955 | -47.72082 | 27958 ft | 407 kts | 223° |
| 2026-05-07 02:11 | -24.47019 | -47.74197 | 27950 ft | 406 kts | 223° |
| 2026-05-07 02:11 | -24.49087 | -47.76302 | 27947 ft | 407 kts | 223° |
| 2026-05-07 02:12 | -24.51168 | -47.78417 | 27932 ft | 404 kts | 223° |
| 2026-05-07 02:12 | -24.53203 | -47.80488 | 27855 ft | 395 kts | 223° |
| 2026-05-07 02:12 | -24.55194 | -47.82517 | 27748 ft | 384 kts | 223° |
| 2026-05-07 02:12 | -24.57085 | -47.84446 | 27631 ft | 370 kts | 223° |
| 2026-05-07 02:13 | -24.58945 | -47.86345 | 27511 ft | 357 kts | 223° |
| 2026-05-07 02:13 | -24.60727 | -47.88166 | 27394 ft | 344 kts | 223° |
| 2026-05-07 02:13 | -24.62448 | -47.89925 | 27225 ft | 333 kts | 223° |
| 2026-05-07 02:13 | -24.64129 | -47.91644 | 26760 ft | 331 kts | 223° |
| 2026-05-07 02:14 | -24.65815 | -47.93369 | 26249 ft | 332 kts | 223° |
| 2026-05-07 02:14 | -24.67512 | -47.95105 | 25769 ft | 331 kts | 223° |
| 2026-05-07 02:14 | -24.69192 | -47.96824 | 25307 ft | 331 kts | 223° |
| 2026-05-07 02:14 | -24.70862 | -47.98535 | 24872 ft | 330 kts | 223° |
| 2026-05-07 02:15 | -24.72541 | -48.00255 | 24420 ft | 330 kts | 224° |
| 2026-05-07 02:15 | -24.74226 | -48.01981 | 23983 ft | 330 kts | 224° |
| 2026-05-07 02:15 | -24.75893 | -48.03689 | 23523 ft | 330 kts | 224° |
| 2026-05-07 02:15 | -24.77552 | -48.05391 | 23055 ft | 328 kts | 224° |
| 2026-05-07 02:16 | -24.79221 | -48.07104 | 22586 ft | 328 kts | 224° |
| 2026-05-07 02:16 | -24.80879 | -48.08806 | 22117 ft | 327 kts | 223° |
| 2026-05-07 02:16 | -24.82543 | -48.10514 | 21678 ft | 326 kts | 224° |
| 2026-05-07 02:16 | -24.84201 | -48.12216 | 21234 ft | 325 kts | 224° |
| 2026-05-07 02:17 | -24.85850 | -48.13911 | 20810 ft | 324 kts | 223° |
| 2026-05-07 02:17 | -24.87468 | -48.15574 | 20397 ft | 323 kts | 223° |
| 2026-05-07 02:17 | -24.89101 | -48.17254 | 19988 ft | 322 kts | 223° |
| 2026-05-07 02:17 | -24.90747 | -48.18947 | 19575 ft | 321 kts | 223° |
| 2026-05-07 02:18 | -24.92375 | -48.20623 | 19166 ft | 321 kts | 223° |
| 2026-05-07 02:18 | -24.94004 | -48.22301 | 18722 ft | 322 kts | 223° |
| 2026-05-07 02:18 | -24.95643 | -48.23990 | 18285 ft | 322 kts | 223° |
| 2026-05-07 02:18 | -24.97226 | -48.25725 | 17885 ft | 320 kts | 230° |
| 2026-05-07 02:19 | -24.98537 | -48.27700 | 17482 ft | 318 kts | 239° |
| 2026-05-07 02:19 | -24.99550 | -48.29847 | 17074 ft | 316 kts | 245° |
| 2026-05-07 02:19 | -25.00508 | -48.32017 | 16701 ft | 314 kts | 244° |
| 2026-05-07 02:19 | -25.01160 | -48.33475 | 16439 ft | 313 kts | 244° |
| 2026-05-07 02:20 | -25.02126 | -48.35624 | 16049 ft | 311 kts | 244° |
| 2026-05-07 02:20 | -25.03076 | -48.37741 | 15683 ft | 309 kts | 245° |
| 2026-05-07 02:20 | -25.04030 | -48.39869 | 15304 ft | 308 kts | 245° |
| 2026-05-07 02:20 | -25.04964 | -48.41953 | 14949 ft | 306 kts | 245° |
| 2026-05-07 02:21 | -25.05917 | -48.44084 | 14580 ft | 305 kts | 245° |
| 2026-05-07 02:21 | -25.06840 | -48.46146 | 14232 ft | 303 kts | 245° |
| 2026-05-07 02:21 | -25.07771 | -48.48222 | 13876 ft | 302 kts | 245° |
| 2026-05-07 02:21 | -25.08699 | -48.50292 | 13469 ft | 300 kts | 245° |
| 2026-05-07 02:22 | -25.09622 | -48.52352 | 13075 ft | 299 kts | 245° |
| 2026-05-07 02:22 | -25.10542 | -48.54409 | 12705 ft | 297 kts | 245° |
| 2026-05-07 02:22 | -25.11447 | -48.56433 | 12334 ft | 296 kts | 245° |
| 2026-05-07 02:22 | -25.12360 | -48.58475 | 11965 ft | 294 kts | 245° |
| 2026-05-07 02:23 | -25.13263 | -48.60497 | 11604 ft | 293 kts | 245° |
| 2026-05-07 02:23 | -25.14162 | -48.62509 | 11238 ft | 292 kts | 245° |
| 2026-05-07 02:23 | -25.15045 | -48.64488 | 10894 ft | 291 kts | 245° |
| 2026-05-07 02:23 | -25.15945 | -48.66506 | 10536 ft | 289 kts | 245° |
| 2026-05-07 02:24 | -25.16819 | -48.68480 | 10192 ft | 289 kts | 245° |
| 2026-05-07 02:24 | -25.17708 | -48.70492 | 9792 ft | 288 kts | 245° |
| 2026-05-07 02:24 | -25.18583 | -48.72472 | 9459 ft | 285 kts | 245° |
| 2026-05-07 02:24 | -25.19449 | -48.74435 | 9063 ft | 284 kts | 245° |
| 2026-05-07 02:25 | -25.20312 | -48.76389 | 8699 ft | 282 kts | 246° |
| 2026-05-07 02:25 | -25.21115 | -48.78317 | 8329 ft | 280 kts | 252° |
| 2026-05-07 02:25 | -25.21589 | -48.80382 | 7979 ft | 277 kts | 264° |
| 2026-05-07 02:25 | -25.21725 | -48.82492 | 7635 ft | 274 kts | 269° |
| 2026-05-07 02:26 | -25.21834 | -48.84584 | 7269 ft | 273 kts | 268° |
| 2026-05-07 02:26 | -25.21956 | -48.86672 | 6923 ft | 272 kts | 268° |
| 2026-05-07 02:26 | -25.22079 | -48.88749 | 6610 ft | 270 kts | 268° |
| 2026-05-07 02:26 | -25.22202 | -48.90796 | 6497 ft | 269 kts | 268° |
| 2026-05-07 02:27 | -25.22325 | -48.92870 | 6422 ft | 271 kts | 268° |
| 2026-05-07 02:27 | -25.22445 | -48.94932 | 6420 ft | 269 kts | 268° |
| 2026-05-07 02:27 | -25.22575 | -48.96976 | 6426 ft | 271 kts | 264° |
| 2026-05-07 02:27 | -25.22991 | -48.99019 | 6365 ft | 270 kts | 252° |
| 2026-05-07 02:28 | -25.23736 | -49.00916 | 6089 ft | 271 kts | 246° |
| 2026-05-07 02:28 | -25.24539 | -49.02789 | 5740 ft | 271 kts | 246° |
| 2026-05-07 02:28 | -25.25334 | -49.04670 | 5481 ft | 268 kts | 246° |
| 2026-05-07 02:28 | -25.26122 | -49.06554 | 5377 ft | 272 kts | 246° |
| 2026-05-07 02:29 | -25.26909 | -49.08441 | 5188 ft | 271 kts | 246° |
| 2026-05-07 02:29 | -25.27700 | -49.10337 | 5079 ft | 271 kts | 246° |
| 2026-05-07 02:29 | -25.28490 | -49.12232 | 5054 ft | 271 kts | 246° |
| 2026-05-07 02:29 | -25.29292 | -49.14155 | 5064 ft | 272 kts | 246° |
| 2026-05-07 02:30 | -25.30081 | -49.16048 | 5070 ft | 272 kts | 246° |
| 2026-05-07 02:30 | -25.30860 | -49.17913 | 5071 ft | 271 kts | 246° |
| 2026-05-07 02:30 | -25.31652 | -49.19816 | 5078 ft | 271 kts | 246° |
| 2026-05-07 02:30 | -25.32447 | -49.21726 | 5077 ft | 269 kts | 247° |
| 2026-05-07 02:31 | -25.33311 | -49.23497 | 5077 ft | 255 kts | 236° |
| 2026-05-07 02:31 | -25.34439 | -49.24978 | 5075 ft | 242 kts | 224° |
| 2026-05-07 02:31 | -25.35674 | -49.26262 | 5068 ft | 247 kts | 224° |
| 2026-05-07 02:31 | -25.36906 | -49.27569 | 5070 ft | 240 kts | 224° |
| 2026-05-07 02:32 | -25.38035 | -49.28777 | 5065 ft | 224 kts | 225° |
| 2026-05-07 02:32 | -25.39186 | -49.29878 | 5080 ft | 219 kts | 208° |
| 2026-05-07 02:32 | -25.40648 | -49.30171 | 5111 ft | 209 kts | 168° |
| 2026-05-07 02:32 | -25.41907 | -49.29609 | 5070 ft | 183 kts | 144° |
| 2026-05-07 02:33 | -25.42833 | -49.28808 | 5037 ft | 160 kts | 134° |
| 2026-05-07 02:33 | -25.43611 | -49.27978 | 5036 ft | 151 kts | 130° |
| 2026-05-07 02:33 | -25.44342 | -49.27151 | 5038 ft | 150 kts | 130° |
| 2026-05-07 02:33 | -25.45068 | -49.26335 | 4963 ft | 152 kts | 130° |
| 2026-05-07 02:34 | -25.45798 | -49.25512 | 4776 ft | 149 kts | 130° |
| 2026-05-07 02:34 | -25.46523 | -49.24696 | 4584 ft | 147 kts | 130° |
| 2026-05-07 02:34 | -25.47236 | -49.23895 | 4385 ft | 146 kts | 130° |
| 2026-05-07 02:34 | -25.47947 | -49.23090 | 4209 ft | 146 kts | 131° |
| 2026-05-07 02:35 | -25.48662 | -49.22286 | 4023 ft | 145 kts | 131° |
| 2026-05-07 02:35 | -25.49363 | -49.21496 | 3835 ft | 144 kts | 131° |
| 2026-05-07 02:35 | -25.50066 | -49.20704 | 3636 ft | 143 kts | 133° |
| 2026-05-07 02:35 | -25.50768 | -49.19914 | 3444 ft | 152 kts | 133° |
| 2026-05-07 02:36 | -25.51603 | -49.18972 | 3201 ft | 193 kts | 134° |
| 2026-05-07 02:36 | -25.52562 | -49.17889 | 3013 ft | 184 kts | 133° |
| 2026-05-07 02:36 | -25.53322 | -49.17040 | 2995 ft | 107 kts | 134° |
| 2026-05-07 02:36 | -25.53541 | -49.16796 | 2994 ft | 20 kts | 137° |
| 2026-05-07 02:37 | -25.53611 | -49.16794 | 2994 ft | 2 kts | 261° |
| 2026-05-07 02:37 | -25.53610 | -49.16799 | 2994 ft | 0 kts | 271° |
| 2026-05-07 02:38 | -25.53610 | -49.16818 | 2994 ft | 10 kts | 270° |
| 2026-05-07 02:38 | -25.53611 | -49.16912 | 2995 ft | 14 kts | 270° |
| 2026-05-07 02:38 | -25.53638 | -49.17022 | 2995 ft | 16 kts | 246° |
| 2026-05-07 02:38 | -25.53678 | -49.17072 | 2995 ft | 2 kts | 224° |
| 2026-05-07 02:39 | -25.53691 | -49.17086 | 2995 ft | 0 kts | 226° |